KGDV/GDV METAR and TAF weather

Enter ICAO airport designator
Station Type Date Time Source
KGDV METAR 2019/08/18 09:56 UTC NOAA

KGDV 180956Z AUTO 18007KT 10SM CLR 08/07 A2990 RMK AO2 SLP130 T00780067


Station Type Date Time Source
KGDV Decoded METAR 2019/08/18 09:56 UTC NOAA

Station name not available
Aug 18, 2019 - 05:56 AM EDT / 2019.08.18 0956 UTC
Wind: from the S (180 degrees) at 8 MPH (7 KT):0
Visibility: 10 mile(s):0
Sky conditions: clear
Temperature: 46.0 F (7.8 C)
Dew Point: 44.1 F (6.7 C)
Relative Humidity: 92%
Pressure (altimeter): 29.9 in. Hg (1012 hPa)
ob: KGDV 180956Z AUTO 18007KT 10SM CLR 08/07 A2990 RMK AO2 SLP130 T00780067
cycle: 10

Station Type Date Time Source
KGDV TAF 2019/08/18 06:36 UTC NOAA

TAF KGDV 180533Z 1806/1906 VRB06KT P6SM FEW200
FM181800 25010KT P6SM FEW060
FM190200 VRB06KT P6SM SKC

Example: see airport list